Time;durP1;ratioP1;P1;durP2;ratioP2;P2;SDS_P1;SDS_P2;PMS_P1;PMS_P2;Temp;Humidity;BMP_temperature;BMP_pressure;BME280_temperature;BME280_humidity;BME280_pressure;Samples;Min_cycle;Max_cycle;Signal;HPM_P1;HPM_P2
2021/09/05 05:02:44;;;;;;;1999.90;999.90;;;;;;;;;;6176337;22;20546;-64
2021/09/05 05:05:29;;;;;;;1999.90;999.90;;;;;;;;;;6176798;23;20547;-65
2021/09/05 05:08:14;;;;;;;1999.90;999.90;;;;;;;;;;6177939;23;20165;-65
2021/09/05 05:10:59;;;;;;;1999.90;999.90;;;;;;;;;;6167403;23;20381;-64
2021/09/05 05:13:45;;;;;;;1999.90;999.90;;;;;;;;;;6147916;23;20270;-65
2021/09/05 05:16:30;;;;;;;1999.90;999.90;;;;;;;;;;6148054;23;20222;-64
2021/09/05 05:19:16;;;;;;;1999.90;999.90;;;;;;;;;;6149746;23;20620;-65
2021/09/05 05:22:01;;;;;;;1999.90;999.90;;;;;;;;;;6149171;23;20660;-64
2021/09/05 05:24:46;;;;;;;1999.90;999.90;;;;;;;;;;6148390;23;20167;-64
2021/09/05 05:27:31;;;;;;;1999.90;999.90;;;;;;;;;;6149343;23;20171;-64
2021/09/05 05:30:16;;;;;;;1999.90;999.90;;;;;;;;;;6149116;23;20173;-65
2021/09/05 05:33:01;;;;;;;1999.90;999.90;;;;;;;;;;6149316;23;20504;-64
2021/09/05 05:35:47;;;;;;;1999.90;999.90;;;;;;;;;;6148173;23;20191;-65
2021/09/05 05:38:33;;;;;;;1999.90;999.90;;;;;;;;;;6149226;23;20171;-65
2021/09/05 05:41:19;;;;;;;1999.90;999.90;;;;;;;;;;6149134;23;20413;-64
2021/09/05 05:44:04;;;;;;;1999.90;999.90;;;;;;;;;;6148574;23;20175;-65
2021/09/05 05:46:50;;;;;;;27.47;24.93;;;;;;;;;;6149324;23;20617;-65
2021/09/05 05:49:35;;;;;;;1999.90;999.90;;;;;;;;;;6149143;23;20192;-64
2021/09/05 05:52:22;;;;;;;1999.90;999.90;;;;;;;;;;6148983;23;20210;-65
2021/09/05 05:55:07;;;;;;;1999.90;999.90;;;;;;;;;;6148222;23;20236;-65
2021/09/05 05:57:52;;;;;;;1999.90;999.90;;;;;;;;;;6149229;23;20170;-65
2021/09/05 06:00:38;;;;;;;1999.90;999.90;;;;;;;;;;6148868;23;20211;-65
2021/09/05 06:03:23;;;;;;;1999.90;999.90;;;;;;;;;;6149175;23;20675;-65
2021/09/05 06:06:08;;;;;;;1999.90;999.90;;;;;;;;;;6148166;23;20169;-66
2021/09/05 06:08:54;;;;;;;1999.90;999.90;;;;;;;;;;6149033;23;20246;-66
2021/09/05 06:11:39;;;;;;;1999.90;999.90;;;;;;;;;;6148984;23;20306;-65
2021/09/05 06:14:24;;;;;;;1999.90;999.90;;;;;;;;;;6148058;23;20190;-65
2021/09/05 06:17:09;;;;;;;1999.90;999.90;;;;;;;;;;6149045;23;20167;-65
2021/09/05 06:19:54;;;;;;;1999.90;999.90;;;;;;;;;;6149464;23;20520;-65
2021/09/05 06:22:39;;;;;;;1999.90;999.90;;;;;;;;;;6148909;23;20204;-66
2021/09/05 06:25:25;;;;;;;1999.90;999.90;;;;;;;;;;6148062;23;20289;-66
2021/09/05 06:28:10;;;;;;;1999.90;999.90;;;;;;;;;;6148605;23;20170;-64
2021/09/05 06:30:55;;;;;;;1999.90;999.90;;;;;;;;;;6148864;23;20214;-64
2021/09/05 06:33:40;;;;;;;1999.90;999.90;;;;;;;;;;6149079;23;20237;-65
2021/09/05 06:36:25;;;;;;;1999.90;999.90;;;;;;;;;;6148337;23;20651;-64
2021/09/05 06:39:10;;;;;;;12.40;12.00;;;;;;;;;;6148989;23;20500;-65
2021/09/05 06:41:58;;;;;;;6.60;6.40;;;;;;;;;;6149319;23;20538;-64
2021/09/05 06:44:43;;;;;;;4.87;4.77;;;;;;;;;;6148309;23;20209;-66
2021/09/05 06:47:28;;;;;;;3.83;3.73;;;;;;;;;;6148744;23;20171;-66
2021/09/05 06:50:13;;;;;;;13.02;12.63;;;;;;;;;;6148146;23;20382;-65
2021/09/05 06:52:57;;;;;;;4.27;4.17;;;;;;;;;;6149321;23;20251;-64
2021/09/05 06:55:43;;;;;;;2.90;2.90;;;;;;;;;;6148284;23;20237;-64
2021/09/05 06:58:29;;;;;;;1999.90;999.90;;;;;;;;;;6149295;23;20171;-65
2021/09/05 07:01:14;;;;;;;1999.90;999.90;;;;;;;;;;6149200;23;20272;-65
2021/09/05 07:03:59;;;;;;;1999.90;999.90;;;;;;;;;;6148938;23;20171;-66
2021/09/05 07:06:44;;;;;;;1999.90;999.90;;;;;;;;;;6149293;23;20282;-66
2021/09/05 07:09:29;;;;;;;1999.90;999.90;;;;;;;;;;6149288;23;20664;-64
2021/09/05 07:12:14;;;;;;;1999.90;999.90;;;;;;;;;;6149216;23;20254;-65
2021/09/05 07:15:00;;;;;;;1999.90;999.90;;;;;;;;;;6148724;23;20217;-65
2021/09/05 07:17:45;;;;;;;1999.90;999.90;;;;;;;;;;6149296;23;20183;-65
2021/09/05 07:20:31;;;;;;;1999.90;999.90;;;;;;;;;;6149014;23;20170;-65
2021/09/05 07:23:16;;;;;;;1999.90;999.90;;;;;;;;;;6149435;23;20171;-64
2021/09/05 07:26:02;;;;;;;1999.90;999.90;;;;;;;;;;6147981;23;20625;-65
2021/09/05 07:28:47;;;;;;;1999.90;999.90;;;;;;;;;;6147436;23;20436;-64
2021/09/05 07:31:33;;;;;;;1999.90;999.90;;;;;;;;;;6148758;23;20679;-64
2021/09/05 07:34:18;;;;;;;1999.90;999.90;;;;;;;;;;6147787;23;20167;-65
2021/09/05 07:37:04;;;;;;;1999.90;999.90;;;;;;;;;;6148747;23;20191;-64
2021/09/05 07:39:49;;;;;;;1999.90;999.90;;;;;;;;;;6148106;23;20188;-65
2021/09/05 07:42:34;;;;;;;1999.90;999.90;;;;;;;;;;6148644;23;20241;-65
2021/09/05 07:45:19;;;;;;;1999.90;999.90;;;;;;;;;;6147833;23;20203;-65
2021/09/05 07:48:06;;;;;;;1999.90;999.90;;;;;;;;;;6148576;23;20171;-65
2021/09/05 07:50:51;;;;;;;1999.90;999.90;;;;;;;;;;6148552;23;20203;-66
2021/09/05 07:53:36;;;;;;;1999.90;999.90;;;;;;;;;;6148568;23;20172;-65
2021/09/05 07:56:21;;;;;;;1999.90;999.90;;;;;;;;;;6147806;23;20195;-64
2021/09/05 07:59:06;;;;;;;1999.90;999.90;;;;;;;;;;6148881;23;20257;-65
2021/09/05 08:01:52;;;;;;;1999.90;999.90;;;;;;;;;;6148313;23;20286;-65
2021/09/05 08:04:38;;;;;;;1999.90;999.90;;;;;;;;;;6147620;23;20616;-65
2021/09/05 08:07:23;;;;;;;1999.90;999.90;;;;;;;;;;6148622;23;20166;-65
2021/09/05 08:10:08;;;;;;;1999.90;999.90;;;;;;;;;;6148417;23;20627;-66
2021/09/05 08:12:53;;;;;;;1999.90;999.90;;;;;;;;;;6148529;23;20217;-65
2021/09/05 08:15:39;;;;;;;1999.90;999.90;;;;;;;;;;6147492;23;20279;-65
2021/09/05 08:18:23;;;;;;;1999.90;999.90;;;;;;;;;;6148297;23;20178;-66
2021/09/05 08:21:10;;;;;;;1999.90;999.90;;;;;;;;;;6148552;23;20206;-66
2021/09/05 08:23:55;;;;;;;1999.90;999.90;;;;;;;;;;6148054;23;20171;-66
2021/09/05 08:26:40;;;;;;;1999.90;999.90;;;;;;;;;;6148372;23;20551;-64
2021/09/05 08:29:25;;;;;;;1999.90;999.90;;;;;;;;;;6148377;23;20174;-64
2021/09/05 08:32:09;;;;;;;1999.90;999.90;;;;;;;;;;6148209;23;20220;-66
2021/09/05 08:34:54;;;;;;;1999.90;999.90;;;;;;;;;;6147519;23;20171;-64
2021/09/05 08:37:41;;;;;;;1999.90;999.90;;;;;;;;;;6146683;23;20433;-64
2021/09/05 08:40:27;;;;;;;1999.90;999.90;;;;;;;;;;6148469;23;20240;-64
2021/09/05 08:43:13;;;;;;;1999.90;999.90;;;;;;;;;;6148280;23;20170;-63
2021/09/05 08:45:58;;;;;;;1999.90;999.90;;;;;;;;;;6147312;23;20234;-63
2021/09/05 08:48:44;;;;;;;1999.90;999.90;;;;;;;;;;6148594;23;20167;-64
2021/09/05 08:51:29;;;;;;;1999.90;999.90;;;;;;;;;;6148281;23;20553;-66
2021/09/05 08:54:15;;;;;;;1999.90;999.90;;;;;;;;;;6148438;23;20630;-66
2021/09/05 08:57:02;;;;;;;1999.90;999.90;;;;;;;;;;6149277;23;20191;-63
2021/09/05 08:59:47;;;;;;;1999.90;999.90;;;;;;;;;;6149358;23;20213;-64
2021/09/05 09:02:48;;;;;;;1999.90;999.90;;;;;;;;;;6149107;23;20665;-64
2021/09/05 09:05:35;;;;;;;1999.90;999.90;;;;;;;;;;6148468;23;20251;-64
2021/09/05 09:08:21;;;;;;;1999.90;999.90;;;;;;;;;;6149241;23;20458;-64
2021/09/05 09:11:12;;;;;;;1999.90;999.90;;;;;;;;;;6149176;23;20222;-64
2021/09/05 09:13:57;;;;;;;1999.90;999.90;;;;;;;;;;6149015;23;20219;-64
2021/09/05 09:16:42;;;;;;;1999.90;999.90;;;;;;;;;;6149160;23;20194;-64
2021/09/05 09:19:28;;;;;;;1999.90;999.90;;;;;;;;;;6149246;23;20664;-65
2021/09/05 09:22:17;;;;;;;1999.90;999.90;;;;;;;;;;6149069;23;20205;-66
2021/09/05 09:25:02;;;;;;;1999.90;999.90;;;;;;;;;;6148429;23;20199;-64
2021/09/05 09:27:48;;;;;;;1999.90;999.90;;;;;;;;;;6149295;23;20511;-63
2021/09/05 09:30:36;;;;;;;1999.90;999.90;;;;;;;;;;6149225;23;20167;-66
2021/09/05 09:33:23;;;;;;;1999.90;999.90;;;;;;;;;;6149276;23;20171;-65
2021/09/05 09:36:11;;;;;;;1999.90;999.90;;;;;;;;;;6148096;23;20617;-65
2021/09/05 09:38:58;;;;;;;22.70;21.27;;;;;;;;;;6149302;23;20195;-65
2021/09/05 09:41:43;;;;;;;1999.90;999.90;;;;;;;;;;6149081;23;20261;-66
2021/09/05 09:44:30;;;;;;;1999.90;999.90;;;;;;;;;;6148148;23;20167;-64
2021/09/05 09:47:15;;;;;;;1999.90;999.90;;;;;;;;;;6149215;23;20205;-66
2021/09/05 09:50:02;;;;;;;1999.90;999.90;;;;;;;;;;6149170;23;20170;-65
2021/09/05 09:52:47;;;;;;;1999.90;999.90;;;;;;;;;;6149063;23;20167;-66
2021/09/05 09:55:32;;;;;;;1999.90;999.90;;;;;;;;;;6148204;23;20171;-66
2021/09/05 09:58:17;;;;;;;1999.90;999.90;;;;;;;;;;6149054;23;20668;-65
2021/09/05 10:01:04;;;;;;;1999.90;999.90;;;;;;;;;;6149177;23;20228;-64
2021/09/05 10:03:50;;;;;;;1999.90;999.90;;;;;;;;;;6148369;23;20172;-65
2021/09/05 10:06:36;;;;;;;1999.90;999.90;;;;;;;;;;6148997;23;20163;-65
2021/09/05 10:09:21;;;;;;;1999.90;999.90;;;;;;;;;;6149058;23;20217;-66
2021/09/05 10:12:07;;;;;;;1999.90;999.90;;;;;;;;;;6149022;23;20206;-64
2021/09/05 10:14:53;;;;;;;1999.90;999.90;;;;;;;;;;6148564;23;20182;-65
2021/09/05 10:17:40;;;;;;;1999.90;999.90;;;;;;;;;;6148852;23;20194;-65
2021/09/05 10:20:26;;;;;;;1999.90;999.90;;;;;;;;;;6148754;23;20206;-65
2021/09/05 10:23:11;;;;;;;1999.90;999.90;;;;;;;;;;6149109;23;20166;-65
2021/09/05 10:25:57;;;;;;;1999.90;999.90;;;;;;;;;;6148129;23;20172;-65
2021/09/05 10:28:43;;;;;;;1999.90;999.90;;;;;;;;;;6148995;23;20175;-65
2021/09/05 10:31:29;;;;;;;1999.90;999.90;;;;;;;;;;6148037;23;20374;-65
2021/09/05 10:47:40;;;;;;;1999.90;999.90;;;;;;;;;;5108272;27;20550;-66
2021/09/05 10:50:32;;;;;;;1999.90;999.90;;;;;;;;;;5108216;28;20206;-67
2021/09/05 10:53:18;;;;;;;1999.90;999.90;;;;;;;;;;5108126;28;20478;-67
2021/09/05 10:56:04;;;;;;;1999.90;999.90;;;;;;;;;;5107391;28;20225;-66
2021/09/05 10:58:50;;;;;;;1999.90;999.90;;;;;;;;;;5108288;28;20210;-67
2021/09/05 11:01:35;;;;;;;1999.90;999.90;;;;;;;;;;5108095;28;20227;-67
2021/09/05 11:04:24;;;;;;;1999.90;999.90;;;;;;;;;;5107291;28;20721;-66
2021/09/05 11:07:29;;;;;;;1999.90;999.90;;;;;;;;;;5108133;28;20284;-67
2021/09/05 11:10:34;;;;;;;1999.90;999.90;;;;;;;;;;5108039;28;20204;-66
2021/09/05 11:13:38;;;;;;;1999.90;999.90;;;;;;;;;;5107813;28;20210;-66
2021/09/05 11:16:23;;;;;;;1999.90;999.90;;;;;;;;;;5107130;28;20216;-66
2021/09/05 11:19:08;;;;;;;1999.90;999.90;;;;;;;;;;5107947;28;20287;-66
2021/09/05 11:21:54;;;;;;;1999.90;999.90;;;;;;;;;;5107935;28;20225;-67
2021/09/05 11:24:40;;;;;;;1999.90;999.90;;;;;;;;;;5107318;28;20329;-66
2021/09/05 11:27:25;;;;;;;1999.90;999.90;;;;;;;;;;5108077;28;20198;-66
2021/09/05 11:30:11;;;;;;;1999.90;999.90;;;;;;;;;;5108035;28;20239;-66
2021/09/05 11:32:57;;;;;;;1999.90;999.90;;;;;;;;;;5107947;28;20202;-66
2021/09/05 11:35:43;;;;;;;1999.90;999.90;;;;;;;;;;5106818;28;20249;-66
2021/09/05 11:38:30;;;;;;;1999.90;999.90;;;;;;;;;;5107691;28;20208;-67
2021/09/05 11:41:23;;;;;;;1999.90;999.90;;;;;;;;;;5107442;28;20226;-66
2021/09/05 11:44:08;;;;;;;1999.90;999.90;;;;;;;;;;5106752;28;20205;-67
2021/09/05 11:47:06;;;;;;;1999.90;999.90;;;;;;;;;;5102365;28;20608;-66
2021/09/05 11:49:52;;;;;;;1999.90;999.90;;;;;;;;;;5093795;28;20215;-67
2021/09/05 11:52:38;;;;;;;1999.90;999.90;;;;;;;;;;5093678;28;20231;-67
2021/09/05 11:55:24;;;;;;;1999.90;999.90;;;;;;;;;;5092952;28;20219;-66
2021/09/05 11:58:09;;;;;;;1999.90;999.90;;;;;;;;;;5093271;28;20669;-66
2021/09/05 12:00:56;;;;;;;1999.90;999.90;;;;;;;;;;5093734;28;20287;-67
2021/09/05 12:03:40;;;;;;;1999.90;999.90;;;;;;;;;;5092658;28;20489;-66
2021/09/05 12:06:25;;;;;;;1999.90;999.90;;;;;;;;;;5092991;28;20355;-67
2021/09/05 12:09:10;;;;;;;1999.90;999.90;;;;;;;;;;5093375;28;20200;-66
2021/09/05 12:11:58;;;;;;;1999.90;999.90;;;;;;;;;;5092951;28;20225;-67
2021/09/05 12:14:43;;;;;;;1999.90;999.90;;;;;;;;;;5092471;28;20704;-66
2021/09/05 12:17:29;;;;;;;1999.90;999.90;;;;;;;;;;5092762;28;20306;-66
2021/09/05 12:20:15;;;;;;;1999.90;999.90;;;;;;;;;;5093085;28;20728;-66
2021/09/05 12:23:00;;;;;;;1999.90;999.90;;;;;;;;;;5093109;28;20286;-66
2021/09/05 12:25:45;;;;;;;1999.90;999.90;;;;;;;;;;5092396;28;20199;-67
2021/09/05 12:28:33;;;;;;;1999.90;999.90;;;;;;;;;;5092709;28;20200;-67
2021/09/05 12:31:17;;;;;;;1999.90;999.90;;;;;;;;;;5092896;28;20226;-66
2021/09/05 12:34:02;;;;;;;1999.90;999.90;;;;;;;;;;5092134;28;20204;-64
2021/09/05 12:36:55;;;;;;;1999.90;999.90;;;;;;;;;;5092682;28;20615;-66
2021/09/05 12:39:41;;;;;;;1999.90;999.90;;;;;;;;;;5092730;28;20289;-67
2021/09/05 12:42:27;;;;;;;1999.90;999.90;;;;;;;;;;5092556;28;20228;-67
2021/09/05 12:45:14;;;;;;;1999.90;999.90;;;;;;;;;;5091789;28;20223;-67
2021/09/05 12:48:13;;;;;;;1999.90;999.90;;;;;;;;;;5091880;28;20788;-67
2021/09/05 12:51:01;;;;;;;1999.90;999.90;;;;;;;;;;5092726;28;20223;-67
2021/09/05 12:53:54;;;;;;;1999.90;999.90;;;;;;;;;;5092213;28;20203;-67
2021/09/05 12:56:40;;;;;;;1999.90;999.90;;;;;;;;;;5092235;28;20224;-67
2021/09/05 12:59:24;;;;;;;1999.90;999.90;;;;;;;;;;5091366;28;20220;-66
2021/09/05 13:02:11;;;;;;;1999.90;999.90;;;;;;;;;;5092186;28;20647;-66
2021/09/05 13:04:56;;;;;;;1999.90;999.90;;;;;;;;;;5091326;28;20225;-66
2021/09/05 13:07:40;;;;;;;1999.90;999.90;;;;;;;;;;5092479;28;20557;-67
2021/09/05 13:10:26;;;;;;;1999.90;999.90;;;;;;;;;;5091906;28;20219;-67
2021/09/05 13:13:10;;;;;;;1999.90;999.90;;;;;;;;;;5092103;28;20253;-67
2021/09/05 13:15:55;;;;;;;1999.90;999.90;;;;;;;;;;5091214;28;20713;-67
2021/09/05 13:18:43;;;;;;;1999.90;999.90;;;;;;;;;;5092134;28;20207;-66
2021/09/05 13:21:27;;;;;;;1999.90;999.90;;;;;;;;;;5091869;28;20586;-67
2021/09/05 13:24:12;;;;;;;1999.90;999.90;;;;;;;;;;5091151;28;20779;-67
2021/09/05 13:26:57;;;;;;;1999.90;999.90;;;;;;;;;;5091870;28;20207;-67
2021/09/05 13:29:42;;;;;;;1999.90;999.90;;;;;;;;;;5091743;28;20700;-66
2021/09/05 13:32:27;;;;;;;1999.90;999.90;;;;;;;;;;5091569;28;20231;-67
2021/09/05 13:35:13;;;;;;;1999.90;999.90;;;;;;;;;;5090752;28;20204;-67
2021/09/05 13:37:59;;;;;;;1999.90;999.90;;;;;;;;;;5092385;28;20564;-67
2021/09/05 13:40:44;;;;;;;1999.90;999.90;;;;;;;;;;5091526;28;20248;-67
2021/09/05 13:43:28;;;;;;;1999.90;999.90;;;;;;;;;;5091747;28;20668;-68
2021/09/05 13:46:14;;;;;;;1999.90;999.90;;;;;;;;;;5090744;28;20219;-67
2021/09/05 13:48:59;;;;;;;1999.90;999.90;;;;;;;;;;5091210;28;20281;-66
2021/09/05 13:51:45;;;;;;;1999.90;999.90;;;;;;;;;;5091096;28;20223;-66
2021/09/05 13:54:30;;;;;;;1999.90;999.90;;;;;;;;;;5090528;28;20204;-67
2021/09/05 13:57:15;;;;;;;1999.90;999.90;;;;;;;;;;5089632;28;20421;-67
2021/09/05 13:59:59;;;;;;;1999.90;999.90;;;;;;;;;;5091177;28;20329;-66
2021/09/05 14:02:44;;;;;;;1999.90;999.90;;;;;;;;;;5091196;28;20281;-67
2021/09/05 14:05:29;;;;;;;1999.90;999.90;;;;;;;;;;5090558;28;20258;-67
2021/09/05 14:08:16;;;;;;;1999.90;999.90;;;;;;;;;;5091061;28;20199;-67
2021/09/05 14:11:02;;;;;;;1999.90;999.90;;;;;;;;;;5091019;28;20585;-67
2021/09/05 14:13:47;;;;;;;1999.90;999.90;;;;;;;;;;5091063;28;20579;-67
2021/09/05 14:16:32;;;;;;;1999.90;999.90;;;;;;;;;;5090807;28;20225;-66
2021/09/05 14:19:16;;;;;;;1999.90;999.90;;;;;;;;;;5091093;28;20421;-67
2021/09/05 14:22:02;;;;;;;1999.90;999.90;;;;;;;;;;5090866;28;20414;-66
2021/09/05 14:24:48;;;;;;;1999.90;999.90;;;;;;;;;;5090209;28;20222;-66
2021/09/05 14:27:35;;;;;;;1999.90;999.90;;;;;;;;;;5091048;28;20578;-67
2021/09/05 14:30:30;;;;;;;1999.90;999.90;;;;;;;;;;5090748;28;20627;-67
2021/09/05 14:48:34;;;;;;;1999.90;999.90;;;;;;;;;;5090608;28;20253;-67
2021/09/05 14:51:30;;;;;;;1999.90;999.90;;;;;;;;;;5090312;28;20220;-65
2021/09/05 14:54:40;;;;;;;1999.90;999.90;;;;;;;;;;5089792;28;20203;-67
2021/09/05 14:57:27;;;;;;;1999.90;999.90;;;;;;;;;;5090243;28;20653;-67
2021/09/05 15:00:12;;;;;;;1999.90;999.90;;;;;;;;;;5090956;28;20227;-66
2021/09/05 15:03:01;;;;;;;1999.90;999.90;;;;;;;;;;5090437;28;20203;-66
2021/09/05 15:05:54;;;;;;;1999.90;999.90;;;;;;;;;;5089827;28;20691;-66
2021/09/05 15:11:42;;;;;;;1999.90;999.90;;;;;;;;;;5090343;28;20219;-65
2021/09/05 15:14:29;;;;;;;1999.90;999.90;;;;;;;;;;5089650;28;20207;-65
2021/09/05 15:17:13;;;;;;;1999.90;999.90;;;;;;;;;;5090300;28;20244;-65
2021/09/05 15:19:58;;;;;;;1999.90;999.90;;;;;;;;;;5090648;28;20314;-67
2021/09/05 15:22:44;;;;;;;1999.90;999.90;;;;;;;;;;5092261;28;20211;-67
2021/09/05 15:25:29;;;;;;;31.70;29.90;;;;;;;;;;5093565;28;20277;-67
2021/09/05 15:28:15;;;;;;;44.75;42.45;;;;;;;;;;5093292;28;20395;-66
2021/09/05 15:31:08;;;;;;;35.77;33.80;;;;;;;;;;5093882;28;20224;-67
2021/09/05 15:34:17;;;;;;;1999.90;999.90;;;;;;;;;;5093885;28;20286;-66
2021/09/05 15:49:38;;;;;;;1999.90;999.90;;;;;;;;;;5093754;28;20196;-67
2021/09/05 15:52:27;;;;;;;1999.90;999.90;;;;;;;;;;5093664;28;20219;-66
2021/09/05 15:55:12;;;;;;;1999.90;999.90;;;;;;;;;;5092761;28;20212;-67
2021/09/05 15:57:58;;;;;;;1999.90;999.90;;;;;;;;;;5093325;28;20227;-67
2021/09/05 16:00:49;;;;;;;1999.90;999.90;;;;;;;;;;5093548;28;20232;-67
2021/09/05 16:03:40;;;;;;;1999.90;999.90;;;;;;;;;;5093540;28;20199;-67
2021/09/05 16:06:46;;;;;;;1999.90;999.90;;;;;;;;;;5092770;28;20689;-67
2021/09/05 16:18:41;;;;;;;1999.90;999.90;;;;;;;;;;5093011;28;20191;-67
2021/09/05 16:21:26;;;;;;;1999.90;999.90;;;;;;;;;;5093173;28;20224;-67
2021/09/05 16:24:11;;;;;;;1999.90;999.90;;;;;;;;;;5092439;28;20211;-67
2021/09/05 16:26:56;;;;;;;1999.90;999.90;;;;;;;;;;5092890;28;20200;-66
2021/09/05 16:29:44;;;;;;;1999.90;999.90;;;;;;;;;;5093496;28;20220;-67
2021/09/05 16:32:37;;;;;;;1999.90;999.90;;;;;;;;;;5093105;28;20350;-67
2021/09/05 16:35:29;;;;;;;1999.90;999.90;;;;;;;;;;5092418;28;20405;-67
2021/09/05 16:38:26;;;;;;;1999.90;999.90;;;;;;;;;;5092804;28;20219;-67
2021/09/05 16:41:10;;;;;;;1999.90;999.90;;;;;;;;;;5092820;28;20350;-67
2021/09/05 16:43:55;;;;;;;1999.90;999.90;;;;;;;;;;5092647;28;20592;-67
2021/09/05 16:46:39;;;;;;;1999.90;999.90;;;;;;;;;;5092338;28;20808;-66
2021/09/05 16:49:24;;;;;;;1999.90;999.90;;;;;;;;;;5092704;28;20208;-66
2021/09/05 16:52:11;;;;;;;1999.90;999.90;;;;;;;;;;5092415;28;20233;-66
2021/09/05 16:54:55;;;;;;;1999.90;999.90;;;;;;;;;;5091915;28;20693;-66
2021/09/05 16:57:41;;;;;;;1999.90;999.90;;;;;;;;;;5092345;28;20216;-67
2021/09/05 17:00:26;;;;;;;1999.90;999.90;;;;;;;;;;5092315;28;20218;-67
2021/09/05 17:03:11;;;;;;;1999.90;999.90;;;;;;;;;;5092192;28;20284;-67
2021/09/05 17:05:56;;;;;;;1999.90;999.90;;;;;;;;;;5091605;28;20204;-67
2021/09/05 17:08:42;;;;;;;1999.90;999.90;;;;;;;;;;5092175;28;20207;-67
2021/09/05 17:11:29;;;;;;;1999.90;999.90;;;;;;;;;;5092091;28;20224;-67
2021/09/05 17:14:14;;;;;;;1999.90;999.90;;;;;;;;;;5091271;28;20253;-67
2021/09/05 17:16:58;;;;;;;1999.90;999.90;;;;;;;;;;5092125;28;20630;-66
2021/09/05 17:19:43;;;;;;;53.67;49.03;;;;;;;;;;5092075;28;20322;-67
2021/09/05 17:22:28;;;;;;;40.43;38.23;;;;;;;;;;5092023;28;20582;-67
2021/09/05 17:25:14;;;;;;;37.67;35.63;;;;;;;;;;5090996;28;20675;-66
2021/09/05 17:27:59;;;;;;;44.77;42.40;;;;;;;;;;5091953;28;20218;-67
2021/09/05 17:30:44;;;;;;;47.20;44.87;;;;;;;;;;5091830;28;20604;-66
2021/09/05 17:33:30;;;;;;;43.30;41.07;;;;;;;;;;5091694;28;20306;-67
2021/09/05 17:36:15;;;;;;;53.37;50.70;;;;;;;;;;5091215;28;20214;-67
2021/09/05 17:39:00;;;;;;;60.27;57.27;;;;;;;;;;5091689;28;20204;-66
2021/09/05 17:41:47;;;;;;;33.60;31.73;;;;;;;;;;5091177;28;20309;-66
2021/09/05 17:44:31;;;;;;;1999.90;999.90;;;;;;;;;;5090537;28;20256;-67
2021/09/05 17:47:18;;;;;;;1999.90;999.90;;;;;;;;;;5091190;28;20210;-67
2021/09/05 17:50:03;;;;;;;1999.90;999.90;;;;;;;;;;5091434;28;20227;-66
2021/09/05 17:52:48;;;;;;;1999.90;999.90;;;;;;;;;;5091448;28;20206;-67
2021/09/05 17:55:33;;;;;;;1999.90;999.90;;;;;;;;;;5090814;28;20298;-67
2021/09/05 17:58:20;;;;;;;1999.90;999.90;;;;;;;;;;5090862;28;20237;-66
2021/09/05 18:01:05;;;;;;;1999.90;999.90;;;;;;;;;;5091289;28;20222;-66
2021/09/05 18:03:50;;;;;;;1999.90;999.90;;;;;;;;;;5091126;28;20253;-65
2021/09/05 18:06:35;;;;;;;1999.90;999.90;;;;;;;;;;5091271;28;20348;-67
2021/09/05 18:09:20;;;;;;;1999.90;999.90;;;;;;;;;;5090947;28;20682;-66
2021/09/05 18:12:05;;;;;;;1999.90;999.90;;;;;;;;;;5091123;28;20231;-67
2021/09/05 18:14:52;;;;;;;1999.90;999.90;;;;;;;;;;5090444;28;20308;-67
2021/09/05 18:17:37;;;;;;;1999.90;999.90;;;;;;;;;;5090939;28;20611;-67
2021/09/05 18:20:22;;;;;;;1999.90;999.90;;;;;;;;;;5090927;28;20208;-67
2021/09/05 18:23:07;;;;;;;1999.90;999.90;;;;;;;;;;5091088;28;20586;-67
2021/09/05 18:25:52;;;;;;;1999.90;999.90;;;;;;;;;;5090278;28;20203;-66
2021/09/05 18:28:37;;;;;;;1999.90;999.90;;;;;;;;;;5083646;28;20570;-66
2021/09/05 18:31:23;;;;;;;1999.90;999.90;;;;;;;;;;5087877;28;20235;-67
2021/09/05 18:34:08;;;;;;;1999.90;999.90;;;;;;;;;;5077528;28;20714;-66
2021/09/05 18:36:53;;;;;;;1999.90;999.90;;;;;;;;;;5074839;28;20229;-67
2021/09/05 18:39:38;;;;;;;1999.90;999.90;;;;;;;;;;5075226;28;20267;-66
2021/09/05 18:42:23;;;;;;;1999.90;999.90;;;;;;;;;;5085849;28;20242;-66
2021/09/05 18:45:09;;;;;;;1999.90;999.90;;;;;;;;;;5084959;28;20704;-66
2021/09/05 18:47:55;;;;;;;1999.90;999.90;;;;;;;;;;5070473;28;20213;-66
2021/09/05 18:50:40;;;;;;;1999.90;999.90;;;;;;;;;;5082894;28;20274;-66
2021/09/05 18:53:25;;;;;;;1999.90;999.90;;;;;;;;;;5077855;28;20414;-66
2021/09/05 18:56:10;;;;;;;1999.90;999.90;;;;;;;;;;5072885;28;20686;-66
2021/09/05 18:58:55;;;;;;;1999.90;999.90;;;;;;;;;;5073631;28;20228;-67
2021/09/05 19:01:40;;;;;;;1999.90;999.90;;;;;;;;;;5074889;28;20334;-66
2021/09/05 19:04:26;;;;;;;1999.90;999.90;;;;;;;;;;5076352;28;20224;-66
2021/09/05 19:07:12;;;;;;;1999.90;999.90;;;;;;;;;;5085604;28;20334;-67
2021/09/05 19:09:57;;;;;;;1999.90;999.90;;;;;;;;;;5074052;28;20255;-67
2021/09/05 19:12:42;;;;;;;1999.90;999.90;;;;;;;;;;5077246;28;20732;-67
2021/09/05 19:15:27;;;;;;;1999.90;999.90;;;;;;;;;;5081029;28;20740;-67
2021/09/05 19:18:12;;;;;;;1999.90;999.90;;;;;;;;;;5080607;28;20248;-66
2021/09/05 19:20:58;;;;;;;1999.90;999.90;;;;;;;;;;5081482;28;20730;-67
2021/09/05 19:23:43;;;;;;;1999.90;999.90;;;;;;;;;;5084019;28;20278;-67
2021/09/05 19:26:28;;;;;;;1999.90;999.90;;;;;;;;;;5094163;28;20286;-66
2021/09/05 19:29:13;;;;;;;1999.90;999.90;;;;;;;;;;5075776;28;20331;-67
2021/09/05 19:31:58;;;;;;;1999.90;999.90;;;;;;;;;;5083921;28;20339;-67
2021/09/05 19:34:43;;;;;;;1999.90;999.90;;;;;;;;;;5076682;28;20692;-66
2021/09/05 19:37:29;;;;;;;1999.90;999.90;;;;;;;;;;5077572;28;20912;-65
2021/09/05 19:40:14;;;;;;;1999.90;999.90;;;;;;;;;;5089125;28;20342;-66
2021/09/05 19:43:00;;;;;;;1999.90;999.90;;;;;;;;;;5079431;28;20752;-66
2021/09/05 19:45:45;;;;;;;1999.90;999.90;;;;;;;;;;5072167;28;20743;-67
2021/09/05 19:48:30;;;;;;;1999.90;999.90;;;;;;;;;;5072960;28;20763;-66
2021/09/05 19:51:14;;;;;;;1999.90;999.90;;;;;;;;;;5087118;28;20266;-66
2021/09/05 19:54:01;;;;;;;30.40;27.50;;;;;;;;;;5091263;28;20575;-65
2021/09/05 19:56:46;;;;;;;45.87;43.33;;;;;;;;;;5072769;28;20902;-66
2021/09/05 19:59:30;;;;;;;39.53;37.07;;;;;;;;;;5072400;28;20228;-67
